createdAt,value
2017-09-21T00:00:14.968Z,0
2017-09-21T00:01:24.017Z,0
2017-09-21T00:02:33.987Z,0
2017-09-21T00:03:43.320Z,0
2017-09-21T00:04:52.657Z,0
2017-09-21T00:06:01.670Z,0
2017-09-21T00:07:10.682Z,0
2017-09-21T00:08:19.697Z,0
2017-09-21T00:09:28.711Z,0
2017-09-21T00:10:37.420Z,0
2017-09-21T00:11:46.763Z,0
2017-09-21T00:12:55.777Z,0
2017-09-21T00:14:04.795Z,0
2017-09-21T00:15:14.128Z,0
2017-09-21T00:16:23.143Z,0
2017-09-21T00:17:31.840Z,0
2017-09-21T00:18:40.853Z,0
2017-09-21T00:19:49.868Z,0
2017-09-21T00:20:59.205Z,0
2017-09-21T00:22:08.219Z,0
2017-09-21T00:23:17.238Z,0
2017-09-21T00:24:26.896Z,0
2017-09-21T00:25:35.912Z,0
2017-09-21T00:26:45.247Z,0
2017-09-21T00:27:54.261Z,0
2017-09-21T00:29:02.954Z,0
2017-09-21T00:30:11.651Z,0
2017-09-21T00:31:20.346Z,0
2017-09-21T00:32:29.361Z,0
2017-09-21T00:33:38.698Z,0
2017-09-21T00:34:47.389Z,0
2017-09-21T00:35:57.054Z,0
2017-09-21T00:37:06.071Z,0
2017-09-21T00:38:15.086Z,0
2017-09-21T00:39:23.778Z,0
2017-09-21T00:40:32.792Z,0
2017-09-21T00:41:41.806Z,0
2017-09-21T00:42:50.819Z,0
2017-09-21T00:44:00.155Z,0
2017-09-21T00:45:09.488Z,0
2017-09-21T00:46:18.501Z,0
2017-09-21T00:47:27.194Z,0
2017-09-21T00:48:36.208Z,0
2017-09-21T00:49:45.539Z,0
2017-09-21T00:50:54.873Z,0
2017-09-21T00:52:04.211Z,0
2017-09-21T00:53:13.226Z,0
2017-09-21T00:54:22.240Z,0
2017-09-21T00:55:31.257Z,0
2017-09-21T00:56:40.589Z,0
2017-09-21T00:57:49.606Z,0
2017-09-21T00:58:58.938Z,0
2017-09-21T01:00:07.631Z,0
2017-09-21T01:01:16.323Z,0
2017-09-21T01:02:25.333Z,0
2017-09-21T01:03:34.355Z,0
2017-09-21T01:04:43.052Z,0
2017-09-21T01:05:52.065Z,0
2017-09-21T01:07:00.759Z,0
2017-09-21T01:08:09.776Z,0
2017-09-21T01:09:18.476Z,0
2017-09-21T01:10:27.479Z,0
2017-09-21T01:11:36.173Z,0
2017-09-21T01:12:44.864Z,0
2017-09-21T01:13:54.514Z,0
2017-09-21T01:15:03.210Z,0
2017-09-21T01:16:12.226Z,0
2017-09-21T01:17:21.561Z,0
2017-09-21T01:18:30.257Z,0
2017-09-21T01:19:39.592Z,0
2017-09-21T01:20:49.564Z,0
2017-09-21T01:21:58.904Z,0
2017-09-21T01:23:07.598Z,0
2017-09-21T01:24:16.612Z,0
2017-09-21T01:25:25.947Z,0
2017-09-21T01:26:34.962Z,0
2017-09-21T01:27:43.978Z,0
2017-09-21T01:28:52.994Z,0
2017-09-21T01:30:02.012Z,0
2017-09-21T01:31:11.350Z,0
2017-09-21T01:32:20.365Z,0
2017-09-21T01:33:29.382Z,0
2017-09-21T01:34:38.397Z,0
2017-09-21T01:35:47.409Z,0
2017-09-21T01:36:56.107Z,0
2017-09-21T01:38:05.444Z,0
2017-09-21T01:39:14.460Z,0
2017-09-21T01:40:23.470Z,0
2017-09-21T01:41:32.484Z,0
2017-09-21T01:42:41.176Z,0
2017-09-21T01:43:49.870Z,0
2017-09-21T01:44:58.562Z,0
2017-09-21T01:46:07.577Z,0
2017-09-21T01:47:16.589Z,0
2017-09-21T01:48:25.604Z,0
2017-09-21T01:49:34.298Z,0
2017-09-21T01:50:43.652Z,0
2017-09-21T01:51:52.346Z,0
2017-09-21T01:53:01.680Z,0
2017-09-21T01:54:11.017Z,0
2017-09-21T01:55:20.354Z,0
2017-09-21T01:56:29.047Z,0
2017-09-21T01:57:38.064Z,0
2017-09-21T01:58:47.401Z,0
2017-09-21T01:59:56.095Z,0
2017-09-21T02:01:04.790Z,0
2017-09-21T02:02:14.129Z,0
2017-09-21T02:03:23.142Z,0
2017-09-21T02:04:31.836Z,0
2017-09-21T02:05:40.858Z,0
2017-09-21T02:06:50.188Z,0
2017-09-21T02:07:58.887Z,0
2017-09-21T02:09:07.902Z,0
2017-09-21T02:10:16.915Z,0
2017-09-21T02:11:25.930Z,0
2017-09-21T02:12:34.944Z,0
2017-09-21T02:13:44.288Z,0
2017-09-21T02:14:53.303Z,0
2017-09-21T02:16:02.955Z,0
2017-09-21T02:17:12.610Z,0
2017-09-21T02:18:21.948Z,0
2017-09-21T02:19:30.963Z,0
2017-09-21T02:20:39.976Z,0
2017-09-21T02:21:48.990Z,0
2017-09-21T02:22:58.330Z,0
2017-09-21T02:24:07.340Z,0
2017-09-21T02:25:16.673Z,0
2017-09-21T02:26:25.367Z,0
2017-09-21T02:27:34.707Z,0
2017-09-21T02:28:43.723Z,0
2017-09-21T02:29:52.741Z,0
2017-09-21T02:31:01.754Z,0
2017-09-21T02:32:11.426Z,0
2017-09-21T02:33:20.441Z,0
2017-09-21T02:34:29.460Z,0
2017-09-21T02:35:38.796Z,0
2017-09-21T02:36:48.138Z,0
2017-09-21T02:37:57.470Z,0
2017-09-21T02:39:07.448Z,0
2017-09-21T02:40:16.785Z,0
2017-09-21T02:41:26.122Z,0
2017-09-21T02:42:35.454Z,0
2017-09-21T02:43:44.466Z,0
2017-09-21T02:44:53.158Z,0
2017-09-21T02:46:01.853Z,0
2017-09-21T02:47:10.870Z,0
2017-09-21T02:48:19.882Z,0
2017-09-21T02:49:29.539Z,0
2017-09-21T02:50:38.558Z,0
2017-09-21T02:51:47.891Z,0
2017-09-21T02:52:57.547Z,0
2017-09-21T02:54:07.216Z,0
2017-09-21T02:55:16.233Z,0
2017-09-21T02:56:25.248Z,0
2017-09-21T02:57:33.942Z,0
2017-09-21T02:58:42.636Z,0
2017-09-21T02:59:51.967Z,0
2017-09-21T03:01:00.662Z,0
2017-09-21T03:02:09.356Z,0
2017-09-21T03:03:18.692Z,0
2017-09-21T03:04:27.705Z,0
2017-09-21T03:05:36.719Z,0
2017-09-21T03:06:46.372Z,0
2017-09-21T03:07:55.384Z,0
2017-09-21T03:09:04.717Z,0
2017-09-21T03:10:13.731Z,0
2017-09-21T03:11:22.744Z,0
2017-09-21T03:12:32.079Z,0
2017-09-21T03:13:41.091Z,0
2017-09-21T03:14:50.426Z,0
2017-09-21T03:15:59.121Z,0
2017-09-21T03:17:07.815Z,0
2017-09-21T03:18:16.508Z,0
2017-09-21T03:19:26.159Z,0
2017-09-21T03:20:35.817Z,0
2017-09-21T03:21:44.511Z,0
2017-09-21T03:22:53.208Z,0
2017-09-21T03:24:02.539Z,0
2017-09-21T03:25:11.556Z,0
2017-09-21T03:26:21.850Z,0
2017-09-21T03:27:31.503Z,0
2017-09-21T03:28:40.220Z,0
2017-09-21T03:29:48.918Z,0
2017-09-21T03:30:58.251Z,0
2017-09-21T03:32:06.943Z,0
2017-09-21T03:33:15.640Z,0
2017-09-21T03:34:24.337Z,0
2017-09-21T03:35:33.353Z,0
2017-09-21T03:36:42.365Z,0
2017-09-21T03:37:51.379Z,0
2017-09-21T03:39:00.394Z,0
2017-09-21T03:40:09.418Z,0
2017-09-21T03:41:18.113Z,0
2017-09-21T03:42:27.128Z,0
2017-09-21T03:43:35.823Z,0
2017-09-21T03:44:44.853Z,0
2017-09-21T03:45:54.190Z,0
2017-09-21T03:47:03.205Z,0
2017-09-21T03:48:11.898Z,0
2017-09-21T03:49:20.913Z,0
2017-09-21T03:50:30.567Z,0
2017-09-21T03:51:39.262Z,0
2017-09-21T03:52:48.596Z,0
2017-09-21T03:53:57.615Z,0
2017-09-21T03:55:06.309Z,0
2017-09-21T03:56:15.328Z,0
2017-09-21T03:57:24.021Z,0
2017-09-21T03:58:33.995Z,0
2017-09-21T03:59:43.331Z,0
2017-09-21T04:00:52.665Z,0
2017-09-21T04:02:01.681Z,0
2017-09-21T04:03:10.696Z,0
2017-09-21T04:04:20.028Z,0
2017-09-21T04:05:28.722Z,0
2017-09-21T04:06:37.429Z,0
2017-09-21T04:07:46.779Z,0
2017-09-21T04:08:55.791Z,0
2017-09-21T04:10:05.129Z,0
2017-09-21T04:11:15.112Z,0
2017-09-21T04:12:24.763Z,0
2017-09-21T04:13:33.777Z,0
2017-09-21T04:14:42.473Z,0
2017-09-21T04:15:51.168Z,0
2017-09-21T04:17:00.508Z,0
2017-09-21T04:18:09.523Z,0
2017-09-21T04:19:19.177Z,0
2017-09-21T04:20:28.515Z,0
2017-09-21T04:21:37.847Z,0
2017-09-21T04:22:46.543Z,0
2017-09-21T04:23:55.559Z,0
2017-09-21T04:25:04.571Z,0
2017-09-21T04:26:13.591Z,0
2017-09-21T04:27:22.606Z,0
2017-09-21T04:28:31.937Z,0
2017-09-21T04:29:41.600Z,0
2017-09-21T04:30:50.611Z,0
2017-09-21T04:31:59.305Z,0
2017-09-21T04:33:08.001Z,0
2017-09-21T04:34:17.336Z,0
2017-09-21T04:35:26.672Z,0
2017-09-21T04:36:35.686Z,0
2017-09-21T04:37:45.659Z,0
2017-09-21T04:38:54.674Z,0
2017-09-21T04:40:03.686Z,0
2017-09-21T04:41:12.712Z,0
2017-09-21T04:42:21.405Z,0
2017-09-21T04:43:30.421Z,0
2017-09-21T04:44:39.759Z,0
2017-09-21T04:45:48.773Z,0
2017-09-21T04:46:57.790Z,0
2017-09-21T04:48:07.165Z,0
2017-09-21T04:49:16.180Z,0
2017-09-21T04:50:25.205Z,0
2017-09-21T04:51:33.899Z,0
2017-09-21T04:52:42.915Z,0
2017-09-21T04:53:52.567Z,0
2017-09-21T04:55:01.581Z,4
2017-09-21T04:56:10.949Z,0
2017-09-21T04:57:19.931Z,0
2017-09-21T04:58:28.951Z,4
2017-09-21T04:59:37.648Z,4
2017-09-21T05:00:46.661Z,4
2017-09-21T05:01:56.324Z,4
2017-09-21T05:03:05.337Z,4
2017-09-21T05:04:14.350Z,8
2017-09-21T05:05:23.693Z,8
2017-09-21T05:06:32.709Z,4
2017-09-21T05:07:41.721Z,12
2017-09-21T05:08:51.055Z,12
2017-09-21T05:10:00.388Z,12
2017-09-21T05:11:10.363Z,12
2017-09-21T05:12:20.033Z,16
2017-09-21T05:13:29.372Z,16
2017-09-21T05:14:38.702Z,20
2017-09-21T05:15:48.035Z,20
2017-09-21T05:16:57.049Z,20
2017-09-21T05:18:06.062Z,24
2017-09-21T05:19:14.756Z,28
2017-09-21T05:20:23.450Z,28
2017-09-21T05:21:32.790Z,36
2017-09-21T05:22:41.485Z,36
2017-09-21T05:23:50.501Z,40
2017-09-21T05:24:59.196Z,44
2017-09-21T05:26:07.889Z,48
2017-09-21T05:27:16.583Z,48
2017-09-21T05:28:26.246Z,56
2017-09-21T05:29:35.584Z,60
2017-09-21T05:30:44.277Z,60
2017-09-21T05:31:52.973Z,64
2017-09-21T05:33:02.303Z,72
2017-09-21T05:34:11.319Z,72
2017-09-21T05:35:20.332Z,80
2017-09-21T05:36:29.354Z,84
2017-09-21T05:37:38.367Z,88
2017-09-21T05:38:47.061Z,96
2017-09-21T05:39:56.075Z,100
2017-09-21T05:41:05.089Z,104
2017-09-21T05:42:14.101Z,112
2017-09-21T05:43:23.116Z,116
2017-09-21T05:44:32.767Z,124
2017-09-21T05:45:41.780Z,132
2017-09-21T05:46:51.114Z,140
2017-09-21T05:48:00.774Z,144
2017-09-21T05:49:09.795Z,152
2017-09-21T05:50:18.814Z,160
2017-09-21T05:51:28.147Z,164
2017-09-21T05:52:36.841Z,172
2017-09-21T05:53:45.854Z,180
2017-09-21T05:54:54.548Z,188
2017-09-21T05:56:03.564Z,200
2017-09-21T05:57:12.578Z,208
2017-09-21T05:58:22.234Z,216
2017-09-21T05:59:31.246Z,220
2017-09-21T06:00:40.259Z,228
2017-09-21T06:01:49.594Z,236
2017-09-21T06:02:58.611Z,244
2017-09-21T06:04:07.627Z,248
2017-09-21T06:05:17.279Z,256
2017-09-21T06:06:26.613Z,264
2017-09-21T06:07:35.309Z,268
2017-09-21T06:08:44.641Z,276
2017-09-21T06:09:53.660Z,284
2017-09-21T06:11:02.674Z,292
2017-09-21T06:12:11.690Z,296
2017-09-21T06:13:20.383Z,304
2017-09-21T06:14:30.365Z,316
2017-09-21T06:15:39.060Z,324
2017-09-21T06:16:48.392Z,332
2017-09-21T06:17:58.048Z,340
2017-09-21T06:19:07.062Z,356
2017-09-21T06:20:16.079Z,364
2017-09-21T06:21:25.735Z,372
2017-09-21T06:22:35.070Z,380
2017-09-21T06:23:44.404Z,384
2017-09-21T06:24:53.748Z,388
2017-09-21T06:26:03.075Z,388
2017-09-21T06:27:12.089Z,392
2017-09-21T06:28:21.420Z,400
2017-09-21T06:29:30.439Z,412
2017-09-21T06:30:39.458Z,424
2017-09-21T06:31:48.471Z,440
2017-09-21T06:32:57.483Z,460
2017-09-21T06:34:06.821Z,492
2017-09-21T06:35:15.847Z,524
2017-09-21T06:36:25.824Z,560
2017-09-21T06:37:35.479Z,600
2017-09-21T06:38:44.173Z,636
2017-09-21T06:39:53.184Z,668
2017-09-21T06:41:02.199Z,704
2017-09-21T06:42:10.895Z,728
2017-09-21T06:43:19.911Z,748
2017-09-21T06:44:28.926Z,772
2017-09-21T06:45:37.944Z,788
2017-09-21T06:46:47.317Z,812
2017-09-21T06:47:56.335Z,832
2017-09-21T06:49:05.666Z,852
2017-09-21T06:50:14.360Z,872
2017-09-21T06:51:23.697Z,892
2017-09-21T06:52:32.392Z,908
2017-09-21T06:53:41.417Z,928
2017-09-21T06:54:50.752Z,944
2017-09-21T06:55:59.772Z,964
2017-09-21T06:57:08.787Z,980
2017-09-21T06:58:17.804Z,996
2017-09-21T06:59:27.134Z,1016
2017-09-21T07:00:36.150Z,1036
2017-09-21T07:01:44.844Z,1056
2017-09-21T07:02:53.864Z,1080
2017-09-21T07:04:02.558Z,1100
2017-09-21T07:05:11.897Z,1116
2017-09-21T07:06:21.233Z,1132
2017-09-21T07:07:30.572Z,1156
2017-09-21T07:08:39.587Z,1172
2017-09-21T07:09:48.921Z,1196
2017-09-21T07:10:57.935Z,1224
2017-09-21T07:12:06.948Z,1252
2017-09-21T07:13:16.281Z,1272
2017-09-21T07:14:25.615Z,1288
2017-09-21T07:15:34.634Z,1320
2017-09-21T07:16:43.327Z,1352
2017-09-21T07:17:52.342Z,1384
2017-09-21T07:19:01.358Z,1416
2017-09-21T07:20:10.376Z,1456
2017-09-21T07:21:20.026Z,1652
2017-09-21T07:22:29.359Z,1976
2017-09-21T07:23:38.697Z,2004
2017-09-21T07:24:47.717Z,2092
2017-09-21T07:25:57.377Z,2108
2017-09-21T07:27:06.395Z,2028
2017-09-21T07:28:15.408Z,2236
2017-09-21T07:29:24.428Z,2408
2017-09-21T07:30:33.123Z,2604
2017-09-21T07:31:42.460Z,2904
2017-09-21T07:32:51.177Z,3064
2017-09-21T07:34:00.194Z,3136
2017-09-21T07:35:09.529Z,3208
2017-09-21T07:36:18.869Z,3288
2017-09-21T07:37:27.884Z,3388
2017-09-21T07:38:36.900Z,3496
2017-09-21T07:39:45.595Z,3664
2017-09-21T07:40:55.248Z,3968
2017-09-21T07:42:04.585Z,6792
2017-09-21T07:43:13.601Z,12004
2017-09-21T07:44:22.935Z,14932
2017-09-21T07:45:31.632Z,16000
2017-09-21T07:46:40.328Z,15204
2017-09-21T07:47:49.349Z,15264
2017-09-21T07:48:58.682Z,15936
2017-09-21T07:50:07.700Z,16192
2017-09-21T07:51:16.712Z,15840
2017-09-21T07:52:25.730Z,15968
2017-09-21T07:53:35.390Z,17248
2017-09-21T07:54:44.419Z,17920
2017-09-21T07:55:53.765Z,17088
2017-09-21T07:57:02.776Z,16608
2017-09-21T07:58:11.801Z,16544
2017-09-21T07:59:20.496Z,17472
2017-09-21T08:00:29.840Z,17824
2017-09-21T08:01:38.858Z,18336
2017-09-21T08:02:47.882Z,19520
2017-09-21T08:03:57.221Z,18944
2017-09-21T08:05:06.876Z,19200
2017-09-21T08:06:16.223Z,18720
2017-09-21T08:07:25.559Z,20096
2017-09-21T08:08:34.261Z,21568
2017-09-21T08:09:43.632Z,19712
2017-09-21T08:10:52.333Z,20480
2017-09-21T08:12:02.004Z,19648
2017-09-21T08:13:11.344Z,21248
2017-09-21T08:14:20.678Z,21376
2017-09-21T08:15:30.334Z,21184
2017-09-21T08:16:39.355Z,22880
2017-09-21T08:17:48.372Z,22208
2017-09-21T08:18:58.027Z,23264
2017-09-21T08:20:07.045Z,21600
2017-09-21T08:21:16.061Z,9472
2017-09-21T08:22:25.080Z,3368
2017-09-21T08:23:33.778Z,3160
2017-09-21T08:24:43.436Z,3036
2017-09-21T08:25:52.459Z,2684
2017-09-21T08:27:01.801Z,2372
2017-09-21T08:28:11.135Z,2328
2017-09-21T08:29:20.155Z,2308
2017-09-21T08:30:29.813Z,2296
2017-09-21T08:31:38.510Z,2280
2017-09-21T08:32:47.849Z,2268
2017-09-21T08:33:57.184Z,2252
2017-09-21T08:35:06.522Z,2256
2017-09-21T08:36:15.540Z,2248
2017-09-21T08:37:24.875Z,2240
2017-09-21T08:38:34.568Z,2236
2017-09-21T08:39:44.224Z,2220
2017-09-21T08:40:53.572Z,2216
2017-09-21T08:42:03.228Z,2184
2017-09-21T08:43:12.248Z,2184
2017-09-21T08:44:21.916Z,2184
2017-09-21T08:45:30.932Z,2184
2017-09-21T08:46:39.947Z,2184
2017-09-21T08:47:48.964Z,2188
2017-09-21T08:48:57.981Z,2188
2017-09-21T08:50:06.679Z,2188
2017-09-21T08:51:16.345Z,2188
2017-09-21T08:52:25.686Z,2200
2017-09-21T08:53:34.383Z,2184
2017-09-21T08:54:43.402Z,2176
2017-09-21T08:55:52.423Z,2184
2017-09-21T08:57:01.437Z,2200
2017-09-21T08:58:10.457Z,2172
2017-09-21T08:59:19.797Z,2172
2017-09-21T09:00:28.814Z,2172
2017-09-21T09:01:37.831Z,2160
2017-09-21T09:02:46.528Z,2160
2017-09-21T09:03:55.547Z,2144
2017-09-21T09:05:04.244Z,2160
2017-09-21T09:06:12.941Z,2196
2017-09-21T09:07:21.956Z,2220
2017-09-21T09:08:30.971Z,2220
2017-09-21T09:09:39.987Z,2240
2017-09-21T09:10:49.011Z,2248
2017-09-21T09:11:58.028Z,2276
2017-09-21T09:13:07.048Z,2288
2017-09-21T09:14:16.063Z,2292
2017-09-21T09:15:24.760Z,2312
2017-09-21T09:16:33.454Z,2320
2017-09-21T09:17:42.469Z,2332
2017-09-21T09:18:51.490Z,2336
2017-09-21T09:20:00.506Z,2340
2017-09-21T09:21:09.848Z,2352
2017-09-21T09:22:18.870Z,2384
2017-09-21T09:23:27.885Z,2416
2017-09-21T09:24:36.583Z,2428
2017-09-21T09:25:45.922Z,2488
2017-09-21T09:26:55.256Z,2540
2017-09-21T09:28:03.953Z,2580
2017-09-21T09:29:13.609Z,2668
2017-09-21T09:30:23.592Z,2844
2017-09-21T09:31:32.607Z,3064
2017-09-21T09:32:41.306Z,3468
2017-09-21T09:33:50.005Z,16672
2017-09-21T09:34:59.021Z,27456
2017-09-21T09:36:08.039Z,30144
2017-09-21T09:37:17.379Z,31360
2017-09-21T09:38:26.075Z,31904
2017-09-21T09:39:35.413Z,31712
2017-09-21T09:40:44.112Z,29568
2017-09-21T09:41:53.457Z,27264
2017-09-21T09:43:02.795Z,28800
2017-09-21T09:44:11.814Z,29152
2017-09-21T09:45:20.514Z,29696
2017-09-21T09:46:29.215Z,32064
2017-09-21T09:47:38.237Z,32576
2017-09-21T09:48:47.255Z,32224
2017-09-21T09:49:56.280Z,32032
2017-09-21T09:51:05.617Z,31840
2017-09-21T09:52:14.640Z,30368
2017-09-21T09:53:23.985Z,31104
2017-09-21T09:54:32.685Z,32000
2017-09-21T09:55:42.025Z,32480
2017-09-21T09:56:51.372Z,32928
2017-09-21T09:58:00.394Z,31616
2017-09-21T09:59:09.416Z,32576
2017-09-21T10:00:18.119Z,32832
2017-09-21T10:01:27.144Z,32032
2017-09-21T10:02:36.488Z,32000
2017-09-21T10:03:45.192Z,32512
2017-09-21T10:04:54.212Z,34176
2017-09-21T10:06:03.553Z,33088
2017-09-21T10:07:12.576Z,33088
2017-09-21T10:08:21.599Z,33600
2017-09-21T10:09:31.276Z,33728
2017-09-21T10:10:40.942Z,33280
2017-09-21T10:11:49.645Z,33728
2017-09-21T10:12:58.667Z,33440
2017-09-21T10:14:07.699Z,33440
2017-09-21T10:15:16.400Z,33088
2017-09-21T10:16:25.421Z,35648
2017-09-21T10:17:35.085Z,36768
2017-09-21T10:18:43.786Z,35936
2017-09-21T10:19:52.809Z,35104
2017-09-21T10:21:01.512Z,34944
2017-09-21T10:22:11.170Z,33408
2017-09-21T10:23:20.191Z,35360
2017-09-21T10:24:28.893Z,7388
2017-09-21T10:25:38.883Z,32064
2017-09-21T10:26:47.586Z,33536
2017-09-21T10:27:56.286Z,33984
2017-09-21T10:29:04.991Z,33760
2017-09-21T10:30:14.016Z,32352
2017-09-21T10:31:23.044Z,34688
2017-09-21T10:32:31.740Z,24512
2017-09-21T10:33:40.764Z,34592
2017-09-21T10:34:50.104Z,34240
2017-09-21T10:35:59.130Z,34048
2017-09-21T10:37:08.153Z,30624
2017-09-21T10:38:17.181Z,28864
2017-09-21T10:39:26.840Z,20384
2017-09-21T10:40:36.183Z,12188
2017-09-21T10:41:45.531Z,8176
2017-09-21T10:42:54.875Z,8100
2017-09-21T10:44:03.578Z,8172
2017-09-21T10:45:12.284Z,8784
2017-09-21T10:46:21.948Z,7544
2017-09-21T10:47:31.612Z,11516
2017-09-21T10:48:40.317Z,19488
2017-09-21T10:49:49.020Z,27296
2017-09-21T10:50:58.043Z,32192
2017-09-21T10:52:07.385Z,32672
2017-09-21T10:53:16.409Z,30912
2017-09-21T10:54:25.113Z,32864
2017-09-21T10:55:34.141Z,33504
2017-09-21T10:56:43.165Z,34016
2017-09-21T10:57:52.513Z,32128
2017-09-21T10:59:01.538Z,33312
2017-09-21T11:00:10.882Z,33824
2017-09-21T11:01:20.543Z,31552
2017-09-21T11:02:29.568Z,31360
2017-09-21T11:03:38.913Z,31360
2017-09-21T11:04:48.257Z,31616
2017-09-21T11:05:57.281Z,29440
2017-09-21T11:07:06.310Z,29824
2017-09-21T11:08:15.970Z,29888
2017-09-21T11:09:25.000Z,28928
2017-09-21T11:10:34.023Z,26912
2017-09-21T11:11:43.049Z,26336
2017-09-21T11:12:51.750Z,27072
2017-09-21T11:14:01.095Z,26272
2017-09-21T11:15:10.437Z,25920
2017-09-21T11:16:19.141Z,28096
2017-09-21T11:17:27.844Z,26720
2017-09-21T11:18:36.870Z,23648
2017-09-21T11:19:45.893Z,25792
2017-09-21T11:20:54.916Z,29312
2017-09-21T11:22:04.258Z,29600
2017-09-21T11:23:12.965Z,28736
2017-09-21T11:24:21.670Z,29920
2017-09-21T11:25:30.372Z,30496
2017-09-21T11:26:39.711Z,32288
2017-09-21T11:27:48.736Z,33184
2017-09-21T11:28:58.396Z,31552
2017-09-21T11:30:07.417Z,31840
2017-09-21T11:31:16.121Z,32416
2017-09-21T11:32:25.465Z,32512
2017-09-21T11:33:34.170Z,33312
2017-09-21T11:34:43.842Z,34144
2017-09-21T11:35:52.544Z,35456
2017-09-21T11:37:01.567Z,34496
2017-09-21T11:38:10.913Z,33792
2017-09-21T11:39:19.934Z,34336
2017-09-21T11:40:28.959Z,33792
2017-09-21T11:41:38.623Z,34336
2017-09-21T11:42:47.326Z,33024
2017-09-21T11:43:56.665Z,31520
2017-09-21T11:45:05.370Z,28352
2017-09-21T11:46:15.031Z,28896
2017-09-21T11:47:24.382Z,29792
2017-09-21T11:48:33.723Z,31872
2017-09-21T11:49:42.747Z,30304
2017-09-21T11:50:52.090Z,22080
2017-09-21T11:52:01.756Z,5732
2017-09-21T11:53:10.777Z,3856
2017-09-21T11:54:20.451Z,3236
2017-09-21T11:55:29.795Z,2884
2017-09-21T11:56:38.498Z,2744
2017-09-21T11:57:47.838Z,2724
2017-09-21T11:58:57.186Z,2568
2017-09-21T12:00:06.209Z,2444
2017-09-21T12:01:15.870Z,2396
2017-09-21T12:02:24.898Z,2348
2017-09-21T12:03:33.922Z,2252
2017-09-21T12:04:42.942Z,2244
2017-09-21T12:05:53.245Z,2220
2017-09-21T12:07:01.947Z,2168
2017-09-21T12:08:11.289Z,2156
2017-09-21T12:09:20.633Z,2168
2017-09-21T12:10:30.614Z,2156
2017-09-21T12:11:39.631Z,2172
2017-09-21T12:12:48.656Z,2124
2017-09-21T12:13:57.675Z,2136
2017-09-21T12:15:07.016Z,2108
2017-09-21T12:16:16.355Z,2064
2017-09-21T12:17:25.055Z,2032
2017-09-21T12:18:34.075Z,2028
2017-09-21T12:19:43.091Z,2028
2017-09-21T12:20:51.793Z,2036
2017-09-21T12:22:00.815Z,2044
2017-09-21T12:23:10.155Z,2048
2017-09-21T12:24:19.176Z,2040
2017-09-21T12:25:28.513Z,2008
2017-09-21T12:26:37.532Z,1996
2017-09-21T12:27:46.231Z,2012
2017-09-21T12:28:54.937Z,1976
2017-09-21T12:30:04.605Z,1932
2017-09-21T12:31:13.630Z,1892
2017-09-21T12:32:22.967Z,1848
2017-09-21T12:33:31.668Z,1892
2017-09-21T12:34:41.335Z,1848
2017-09-21T12:35:50.711Z,1688
2017-09-21T12:37:00.057Z,1608
2017-09-21T12:38:08.761Z,1552
2017-09-21T12:39:18.417Z,1644
2017-09-21T12:40:28.399Z,1640
2017-09-21T12:41:37.738Z,1636
2017-09-21T12:42:46.436Z,1588
2017-09-21T12:43:55.784Z,1564
2017-09-21T12:45:04.817Z,1504
2017-09-21T12:46:14.804Z,1516
2017-09-21T12:47:24.139Z,1524
2017-09-21T12:48:33.158Z,1512
2017-09-21T12:49:42.180Z,1504
2017-09-21T12:50:51.521Z,1500
2017-09-21T12:52:00.866Z,1504
2017-09-21T12:53:10.209Z,1504
2017-09-21T12:54:19.228Z,1492
2017-09-21T12:55:28.247Z,1488
2017-09-21T12:56:37.265Z,1456
2017-09-21T12:57:46.609Z,1424
2017-09-21T12:58:55.948Z,1380
2017-09-21T13:00:04.964Z,1368
2017-09-21T13:01:13.661Z,1344
2017-09-21T13:02:23.001Z,1320
2017-09-21T13:03:32.339Z,1308
2017-09-21T13:04:41.042Z,1340
2017-09-21T13:05:50.702Z,1324
2017-09-21T13:06:59.403Z,1280
2017-09-21T13:08:08.422Z,1292
2017-09-21T13:09:18.085Z,1340
2017-09-21T13:10:26.782Z,1332
2017-09-21T13:11:35.802Z,1292
2017-09-21T13:12:45.142Z,1272
2017-09-21T13:13:54.161Z,948
2017-09-21T13:15:03.818Z,1012
2017-09-21T13:16:12.839Z,1320
2017-09-21T13:17:22.499Z,1396
2017-09-21T13:18:32.164Z,1452
2017-09-21T13:19:40.862Z,1580
2017-09-21T13:20:49.560Z,1552
2017-09-21T13:21:58.580Z,1392
2017-09-21T13:23:08.562Z,1416
2017-09-21T13:24:17.591Z,1360
2017-09-21T13:25:27.248Z,1436
2017-09-21T13:26:36.265Z,1504
2017-09-21T13:27:45.602Z,1400
2017-09-21T13:28:54.944Z,1272
2017-09-21T13:30:03.959Z,1204
2017-09-21T13:31:12.977Z,1156
2017-09-21T13:32:21.995Z,1132
2017-09-21T13:33:31.656Z,1104
2017-09-21T13:34:41.315Z,1116
2017-09-21T13:35:50.329Z,1160
2017-09-21T13:36:59.347Z,1196
2017-09-21T13:38:08.045Z,1200
2017-09-21T13:39:17.385Z,1240
2017-09-21T13:40:26.080Z,1276
2017-09-21T13:41:35.096Z,1348
2017-09-21T13:42:44.113Z,1312
2017-09-21T13:43:52.810Z,1236
2017-09-21T13:45:01.827Z,1168
2017-09-21T13:46:10.524Z,1196
2017-09-21T13:47:19.871Z,1240
2017-09-21T13:48:28.569Z,1244
2017-09-21T13:49:37.907Z,1228
2017-09-21T13:50:46.605Z,1196
2017-09-21T13:51:55.619Z,1120
2017-09-21T13:53:04.636Z,1124
2017-09-21T13:54:13.655Z,1072
2017-09-21T13:55:22.354Z,1032
2017-09-21T13:56:31.693Z,976
2017-09-21T13:57:40.709Z,848
2017-09-21T13:58:49.404Z,788
2017-09-21T13:59:58.424Z,764
2017-09-21T14:01:08.082Z,740
2017-09-21T14:02:17.099Z,732
2017-09-21T14:03:25.800Z,720
2017-09-21T14:04:35.140Z,720
2017-09-21T14:05:43.839Z,716
2017-09-21T14:06:53.175Z,728
2017-09-21T14:08:02.835Z,720
2017-09-21T14:09:11.536Z,712
2017-09-21T14:10:21.201Z,712
2017-09-21T14:11:30.553Z,696
2017-09-21T14:12:39.257Z,672
2017-09-21T14:13:47.956Z,656
2017-09-21T14:14:57.622Z,664
2017-09-21T14:16:07.278Z,672
2017-09-21T14:17:16.291Z,672
2017-09-21T14:18:25.308Z,676
2017-09-21T14:19:34.326Z,676
2017-09-21T14:20:43.344Z,656
2017-09-21T14:21:52.361Z,640
2017-09-21T14:23:01.380Z,636
2017-09-21T14:24:10.396Z,624
2017-09-21T14:25:19.415Z,628
2017-09-21T14:26:28.431Z,636
2017-09-21T14:27:37.769Z,624
2017-09-21T14:28:47.112Z,620
2017-09-21T14:29:56.127Z,624
2017-09-21T14:31:05.144Z,616
2017-09-21T14:32:14.484Z,612
2017-09-21T14:33:23.502Z,592
2017-09-21T14:34:32.519Z,580
2017-09-21T14:35:42.170Z,568
2017-09-21T14:36:50.870Z,556
2017-09-21T14:37:59.570Z,564
2017-09-21T14:39:08.267Z,560
2017-09-21T14:40:16.966Z,560
2017-09-21T14:41:25.982Z,556
2017-09-21T14:42:35.992Z,548
2017-09-21T14:43:44.690Z,540
2017-09-21T14:44:53.387Z,536
2017-09-21T14:46:02.086Z,532
2017-09-21T14:47:11.105Z,528
2017-09-21T14:48:20.767Z,520
2017-09-21T14:49:29.783Z,528
2017-09-21T14:50:38.802Z,520
2017-09-21T14:51:47.499Z,516
2017-09-21T14:52:57.155Z,504
2017-09-21T14:54:06.492Z,496
2017-09-21T14:55:15.510Z,504
2017-09-21T14:56:24.525Z,504
2017-09-21T14:57:33.539Z,500
2017-09-21T14:58:42.879Z,484
2017-09-21T14:59:52.217Z,480
2017-09-21T15:01:00.922Z,472
2017-09-21T15:02:10.261Z,464
2017-09-21T15:03:19.593Z,468
2017-09-21T15:04:29.258Z,460
2017-09-21T15:05:37.956Z,448
2017-09-21T15:06:46.972Z,440
2017-09-21T15:07:56.306Z,444
2017-09-21T15:09:05.004Z,436
2017-09-21T15:10:13.700Z,432
2017-09-21T15:11:23.362Z,428
2017-09-21T15:12:32.060Z,420
2017-09-21T15:13:41.398Z,416
2017-09-21T15:14:50.735Z,404
2017-09-21T15:15:59.752Z,400
2017-09-21T15:17:08.771Z,400
2017-09-21T15:18:18.107Z,392
2017-09-21T15:19:26.805Z,384
2017-09-21T15:20:35.502Z,384
2017-09-21T15:21:44.196Z,384
2017-09-21T15:22:53.874Z,380
2017-09-21T15:24:03.212Z,380
2017-09-21T15:25:11.911Z,376
2017-09-21T15:26:21.570Z,372
2017-09-21T15:27:30.267Z,368
2017-09-21T15:28:38.963Z,364
2017-09-21T15:29:48.617Z,364
2017-09-21T15:30:57.315Z,364
2017-09-21T15:32:06.969Z,360
2017-09-21T15:33:15.987Z,356
2017-09-21T15:34:24.682Z,352
2017-09-21T15:35:33.380Z,348
2017-09-21T15:36:42.719Z,344
2017-09-21T15:37:51.742Z,344
2017-09-21T15:39:00.759Z,344
2017-09-21T15:40:10.102Z,340
2017-09-21T15:41:19.440Z,340
2017-09-21T15:42:28.469Z,336
2017-09-21T15:43:37.803Z,332
2017-09-21T15:44:46.821Z,332
2017-09-21T15:45:56.485Z,328
2017-09-21T15:47:05.829Z,324
2017-09-21T15:48:15.166Z,320
2017-09-21T15:49:24.503Z,312
2017-09-21T15:50:33.201Z,308
2017-09-21T15:51:42.866Z,308
2017-09-21T15:52:51.551Z,308